sensor_id;sensor_type;location;lat;lon;timestamp;pressure;altitude;pressure_sealevel;temperature;humidity
13314;BME280;6725;48.112;11.604;2023-04-27T00:01:54;95308.16;;;6.82;100.00
13314;BME280;6725;48.112;11.604;2023-04-27T00:04:19;95305.81;;;6.81;100.00
13314;BME280;6725;48.112;11.604;2023-04-27T00:06:44;95302.31;;;6.77;100.00
13314;BME280;6725;48.112;11.604;2023-04-27T00:09:10;95291.06;;;6.75;100.00
13314;BME280;6725;48.112;11.604;2023-04-27T00:11:36;95289.53;;;6.74;100.00
13314;BME280;6725;48.112;11.604;2023-04-27T00:14:01;95285.59;;;6.68;100.00
13314;BME280;6725;48.112;11.604;2023-04-27T00:16:27;95284.81;;;6.67;100.00
13314;BME280;6725;48.112;11.604;2023-04-27T00:18:52;95286.78;;;6.67;100.00
13314;BME280;6725;48.112;11.604;2023-04-27T00:21:18;95285.56;;;6.61;100.00
13314;BME280;6725;48.112;11.604;2023-04-27T00:23:43;95277.84;;;6.63;100.00
13314;BME280;6725;48.112;11.604;2023-04-27T00:26:09;95279.78;;;6.66;100.00
13314;BME280;6725;48.112;11.604;2023-04-27T00:28:34;95279.00;;;6.69;100.00
13314;BME280;6725;48.112;11.604;2023-04-27T00:30:59;95271.66;;;6.73;100.00
13314;BME280;6725;48.112;11.604;2023-04-27T00:33:27;95263.94;;;6.75;100.00
13314;BME280;6725;48.112;11.604;2023-04-27T00:35:53;95263.19;;;6.78;100.00
13314;BME280;6725;48.112;11.604;2023-04-27T00:38:18;95262.81;;;6.83;100.00
13314;BME280;6725;48.112;11.604;2023-04-27T00:40:44;95266.28;;;6.80;100.00
13314;BME280;6725;48.112;11.604;2023-04-27T00:43:09;95255.38;;;6.73;100.00
13314;BME280;6725;48.112;11.604;2023-04-27T00:45:40;95258.88;;;6.77;100.00
13314;BME280;6725;48.112;11.604;2023-04-27T00:48:07;95256.16;;;6.70;100.00
13314;BME280;6725;48.112;11.604;2023-04-27T00:50:33;95254.59;;;6.69;100.00
13314;BME280;6725;48.112;11.604;2023-04-27T00:52:59;95256.97;;;6.74;100.00
13314;BME280;6725;48.112;11.604;2023-04-27T00:55:26;95251.53;;;6.74;100.00
13314;BME280;6725;48.112;11.604;2023-04-27T00:57:51;95256.56;;;6.75;100.00
13314;BME280;6725;48.112;11.604;2023-04-27T01:00:17;95244.56;;;6.76;100.00
13314;BME280;6725;48.112;11.604;2023-04-27T01:02:42;95248.81;;;6.77;100.00
13314;BME280;6725;48.112;11.604;2023-04-27T01:05:08;95241.84;;;6.80;100.00
13314;BME280;6725;48.112;11.604;2023-04-27T01:07:40;95240.72;;;6.84;100.00
13314;BME280;6725;48.112;11.604;2023-04-27T01:10:06;95247.69;;;6.85;100.00
13314;BME280;6725;48.112;11.604;2023-04-27T01:12:32;95250.78;;;6.84;100.00
13314;BME280;6725;48.112;11.604;2023-04-27T01:14:58;95244.59;;;6.87;100.00
13314;BME280;6725;48.112;11.604;2023-04-27T01:17:23;95252.72;;;6.87;100.00
13314;BME280;6725;48.112;11.604;2023-04-27T01:19:49;95244.59;;;6.87;100.00
13314;BME280;6725;48.112;11.604;2023-04-27T01:22:16;95241.88;;;6.87;100.00
13314;BME280;6725;48.112;11.604;2023-04-27T01:24:41;95241.50;;;6.85;100.00
13314;BME280;6725;48.112;11.604;2023-04-27T01:27:06;95240.72;;;6.88;100.00
13314;BME280;6725;48.112;11.604;2023-04-27T01:29:32;95235.69;;;6.90;100.00
13314;BME280;6725;48.112;11.604;2023-04-27T01:31:57;95234.13;;;6.89;100.00
13314;BME280;6725;48.112;11.604;2023-04-27T01:34:23;95234.94;;;6.93;100.00
13314;BME280;6725;48.112;11.604;2023-04-27T01:36:48;95234.53;;;6.91;100.00
13314;BME280;6725;48.112;11.604;2023-04-27T01:39:14;95234.13;;;6.89;100.00
13314;BME280;6725;48.112;11.604;2023-04-27T01:41:39;95231.44;;;6.89;100.00
13314;BME280;6725;48.112;11.604;2023-04-27T01:44:04;95231.81;;;6.91;100.00
13314;BME280;6725;48.112;11.604;2023-04-27T01:46:30;95223.66;;;6.91;100.00
13314;BME280;6725;48.112;11.604;2023-04-27T01:48:56;95223.66;;;6.91;100.00
13314;BME280;6725;48.112;11.604;2023-04-27T01:51:21;95230.22;;;6.86;100.00
13314;BME280;6725;48.112;11.604;2023-04-27T01:53:46;95232.56;;;6.88;100.00
13314;BME280;6725;48.112;11.604;2023-04-27T01:56:12;95222.91;;;6.91;100.00
13314;BME280;6725;48.112;11.604;2023-04-27T01:58:37;95232.97;;;6.90;100.00
13314;BME280;6725;48.112;11.604;2023-04-27T02:01:03;95236.84;;;6.89;100.00
13314;BME280;6725;48.112;11.604;2023-04-27T02:03:28;95230.63;;;6.88;100.00
13314;BME280;6725;48.112;11.604;2023-04-27T02:05:53;95224.44;;;6.88;100.00
13314;BME280;6725;48.112;11.604;2023-04-27T02:08:19;95222.09;;;6.86;100.00
13314;BME280;6725;48.112;11.604;2023-04-27T02:10:44;95212.78;;;6.84;100.00
13314;BME280;6725;48.112;11.604;2023-04-27T02:13:09;95221.31;;;6.79;100.00
13314;BME280;6725;48.112;11.604;2023-04-27T02:15:35;95213.16;;;6.68;100.00
13314;BME280;6725;48.112;11.604;2023-04-27T02:18:02;95210.03;;;6.63;100.00
13314;BME280;6725;48.112;11.604;2023-04-27T02:20:31;95211.91;;;6.59;100.00
13314;BME280;6725;48.112;11.604;2023-04-27T02:22:57;95202.59;;;6.49;100.00
13314;BME280;6725;48.112;11.604;2023-04-27T02:25:22;95195.59;;;6.41;100.00
13314;BME280;6725;48.112;11.604;2023-04-27T02:27:48;95197.09;;;6.32;100.00
13314;BME280;6725;48.112;11.604;2023-04-27T02:30:13;95192.81;;;6.24;100.00
13314;BME280;6725;48.112;11.604;2023-04-27T02:32:39;95193.97;;;6.23;100.00
13314;BME280;6725;48.112;11.604;2023-04-27T02:35:06;95181.91;;;6.17;100.00
13314;BME280;6725;48.112;11.604;2023-04-27T02:37:32;95175.28;;;6.11;100.00
13314;BME280;6725;48.112;11.604;2023-04-27T02:39:58;95175.25;;;6.04;100.00
13314;BME280;6725;48.112;11.604;2023-04-27T02:42:23;95173.69;;;5.99;100.00
13314;BME280;6725;48.112;11.604;2023-04-27T02:44:49;95165.53;;;5.96;100.00
13314;BME280;6725;48.112;11.604;2023-04-27T02:47:14;95160.13;;;5.96;100.00
13314;BME280;6725;48.112;11.604;2023-04-27T02:49:39;95146.56;;;5.96;100.00
13314;BME280;6725;48.112;11.604;2023-04-27T02:52:05;95140.41;;;5.95;100.00
13314;BME280;6725;48.112;11.604;2023-04-27T02:54:31;95133.41;;;5.91;100.00
13314;BME280;6725;48.112;11.604;2023-04-27T02:56:56;95124.09;;;5.88;100.00
13314;BME280;6725;48.112;11.604;2023-04-27T02:59:22;95116.34;;;5.87;100.00
13314;BME280;6725;48.112;11.604;2023-04-27T03:01:47;95112.47;;;5.84;100.00
13314;BME280;6725;48.112;11.604;2023-04-27T03:04:13;95101.56;;;5.77;100.00
13314;BME280;6725;48.112;11.604;2023-04-27T03:06:42;95082.97;;;5.76;100.00
13314;BME280;6725;48.112;11.604;2023-04-27T03:09:08;95076.78;;;5.75;100.00
13314;BME280;6725;48.112;11.604;2023-04-27T03:11:37;95059.34;;;5.73;100.00
13314;BME280;6725;48.112;11.604;2023-04-27T03:14:02;95055.47;;;5.74;100.00
13314;BME280;6725;48.112;11.604;2023-04-27T03:16:30;95045.03;;;5.69;100.00
13314;BME280;6725;48.112;11.604;2023-04-27T03:18:56;95039.19;;;5.67;100.00
13314;BME280;6725;48.112;11.604;2023-04-27T03:21:21;95033.03;;;5.66;100.00
13314;BME280;6725;48.112;11.604;2023-04-27T03:23:46;95027.22;;;5.68;100.00
13314;BME280;6725;48.112;11.604;2023-04-27T03:26:13;95019.84;;;5.65;100.00
13314;BME280;6725;48.112;11.604;2023-04-27T03:28:38;95018.28;;;5.64;100.00
13314;BME280;6725;48.112;11.604;2023-04-27T03:31:13;95014.06;;;5.66;100.00
13314;BME280;6725;48.112;11.604;2023-04-27T03:33:40;95002.44;;;5.66;100.00
13314;BME280;6725;48.112;11.604;2023-04-27T03:36:06;94991.59;;;5.66;100.00
13314;BME280;6725;48.112;11.604;2023-04-27T03:38:33;94981.56;;;5.70;100.00
13314;BME280;6725;48.112;11.604;2023-04-27T03:40:59;94983.13;;;5.74;100.00
13314;BME280;6725;48.112;11.604;2023-04-27T03:43:25;94978.56;;;5.85;100.00
13314;BME280;6725;48.112;11.604;2023-04-27T03:45:50;94973.16;;;5.92;100.00
13314;BME280;6725;48.112;11.604;2023-04-27T03:48:16;94971.19;;;5.93;100.00
13314;BME280;6725;48.112;11.604;2023-04-27T03:50:42;94973.94;;;5.96;100.00
13314;BME280;6725;48.112;11.604;2023-04-27T03:53:08;94972.41;;;5.95;100.00
13314;BME280;6725;48.112;11.604;2023-04-27T03:55:40;94977.03;;;5.98;100.00
13314;BME280;6725;48.112;11.604;2023-04-27T03:58:05;94975.50;;;6.01;100.00
13314;BME280;6725;48.112;11.604;2023-04-27T04:00:32;94979.38;;;6.07;100.00
13314;BME280;6725;48.112;11.604;2023-04-27T04:02:57;94986.72;;;6.10;100.00
13314;BME280;6725;48.112;11.604;2023-04-27T04:05:23;94999.16;;;6.14;100.00
13314;BME280;6725;48.112;11.604;2023-04-27T04:07:48;94999.13;;;6.18;100.00
13314;BME280;6725;48.112;11.604;2023-04-27T04:10:13;94999.53;;;6.23;100.00
13314;BME280;6725;48.112;11.604;2023-04-27T04:12:39;95015.81;;;6.27;100.00
13314;BME280;6725;48.112;11.604;2023-04-27T04:15:05;95012.31;;;6.30;100.00
13314;BME280;6725;48.112;11.604;2023-04-27T04:17:32;95015.81;;;6.37;100.00
13314;BME280;6725;48.112;11.604;2023-04-27T04:20:01;95029.78;;;6.43;100.00
13314;BME280;6725;48.112;11.604;2023-04-27T04:22:26;95027.84;;;6.54;100.00
13314;BME280;6725;48.112;11.604;2023-04-27T04:24:51;95039.88;;;6.60;100.00
13314;BME280;6725;48.112;11.604;2023-04-27T04:27:17;95046.88;;;6.75;100.00
13314;BME280;6725;48.112;11.604;2023-04-27T04:29:43;95056.16;;;6.81;100.00
13314;BME280;6725;48.112;11.604;2023-04-27T04:32:08;95071.69;;;6.91;100.00
13314;BME280;6725;48.112;11.604;2023-04-27T04:34:34;95073.22;;;7.20;100.00
13314;BME280;6725;48.112;11.604;2023-04-27T04:37:00;95099.97;;;7.39;100.00
13314;BME280;6725;48.112;11.604;2023-04-27T04:39:30;95138.78;;;7.43;100.00
13314;BME280;6725;48.112;11.604;2023-04-27T04:41:55;95174.09;;;7.40;100.00
13314;BME280;6725;48.112;11.604;2023-04-27T04:44:20;95192.72;;;7.24;100.00
13314;BME280;6725;48.112;11.604;2023-04-27T04:46:46;95209.41;;;7.22;100.00
13314;BME280;6725;48.112;11.604;2023-04-27T04:49:11;95211.34;;;7.18;100.00
13314;BME280;6725;48.112;11.604;2023-04-27T04:51:41;95229.53;;;7.14;100.00
13314;BME280;6725;48.112;11.604;2023-04-27T04:54:06;95226.03;;;7.10;100.00
13314;BME280;6725;48.112;11.604;2023-04-27T04:56:31;95232.25;;;7.07;100.00
13314;BME280;6725;48.112;11.604;2023-04-27T04:58:56;95237.66;;;7.00;100.00
13314;BME280;6725;48.112;11.604;2023-04-27T05:01:22;95236.88;;;7.03;100.00
13314;BME280;6725;48.112;11.604;2023-04-27T05:03:47;95237.66;;;7.00;100.00
13314;BME280;6725;48.112;11.604;2023-04-27T05:06:13;95237.66;;;7.00;100.00
13314;BME280;6725;48.112;11.604;2023-04-27T05:08:38;95242.31;;;7.10;100.00
13314;BME280;6725;48.112;11.604;2023-04-27T05:11:04;95230.34;;;7.18;100.00
13314;BME280;6725;48.112;11.604;2023-04-27T05:13:30;95237.72;;;7.28;100.00
13314;BME280;6725;48.112;11.604;2023-04-27T05:15:55;95251.69;;;7.30;100.00
13314;BME280;6725;48.112;11.604;2023-04-27T05:18:20;95242.78;;;7.44;100.00
13314;BME280;6725;48.112;11.604;2023-04-27T05:20:46;95252.88;;;7.50;100.00
13314;BME280;6725;48.112;11.604;2023-04-27T05:23:11;95250.91;;;7.47;100.00
13314;BME280;6725;48.112;11.604;2023-04-27T05:25:36;95257.16;;;7.58;100.00
13314;BME280;6725;48.112;11.604;2023-04-27T05:28:06;95255.63;;;7.75;100.00
13314;BME280;6725;48.112;11.604;2023-04-27T05:30:32;95254.44;;;7.86;100.00
13314;BME280;6725;48.112;11.604;2023-04-27T05:32:58;95263.38;;;7.97;100.00
13314;BME280;6725;48.112;11.604;2023-04-27T05:35:23;95272.69;;;8.10;100.00
13314;BME280;6725;48.112;11.604;2023-04-27T05:37:48;95272.69;;;8.21;100.00
13314;BME280;6725;48.112;11.604;2023-04-27T05:40:14;95296.78;;;8.29;100.00
13314;BME280;6725;48.112;11.604;2023-04-27T05:42:39;95307.66;;;8.50;100.00
13314;BME280;6725;48.112;11.604;2023-04-27T05:45:05;95316.16;;;8.66;100.00
13314;BME280;6725;48.112;11.604;2023-04-27T05:47:31;95338.69;;;8.77;100.00
13314;BME280;6725;48.112;11.604;2023-04-27T05:49:56;95361.63;;;8.90;100.00
13314;BME280;6725;48.112;11.604;2023-04-27T05:52:21;95378.31;;;8.92;100.00
13314;BME280;6725;48.112;11.604;2023-04-27T05:54:53;95383.03;;;8.81;100.00
13314;BME280;6725;48.112;11.604;2023-04-27T05:57:18;95384.56;;;8.89;100.00
13314;BME280;6725;48.112;11.604;2023-04-27T05:59:44;95388.44;;;9.02;100.00
13314;BME280;6725;48.112;11.604;2023-04-27T06:02:09;95385.28;;;9.14;100.00
13314;BME280;6725;48.112;11.604;2023-04-27T06:04:35;95391.50;;;9.18;100.00
13314;BME280;6725;48.112;11.604;2023-04-27T06:07:01;95398.44;;;9.33;100.00
13314;BME280;6725;48.112;11.604;2023-04-27T06:09:31;95401.47;;;9.56;100.00
13314;BME280;6725;48.112;11.604;2023-04-27T06:11:56;95401.78;;;9.72;100.00
13314;BME280;6725;48.112;11.604;2023-04-27T06:14:23;95405.69;;;9.71;100.00
13314;BME280;6725;48.112;11.604;2023-04-27T06:16:49;95409.22;;;9.68;100.00
13314;BME280;6725;48.112;11.604;2023-04-27T06:19:14;95410.00;;;9.65;100.00
13314;BME280;6725;48.112;11.604;2023-04-27T06:21:39;95420.88;;;9.72;100.00
13314;BME280;6725;48.112;11.604;2023-04-27T06:24:05;95418.91;;;9.76;100.00
13314;BME280;6725;48.112;11.604;2023-04-27T06:26:30;95418.09;;;9.86;100.00
13314;BME280;6725;48.112;11.604;2023-04-27T06:28:56;95423.88;;;9.99;100.00
13314;BME280;6725;48.112;11.604;2023-04-27T06:31:21;95434.31;;;10.14;100.00
13314;BME280;6725;48.112;11.604;2023-04-27T06:33:46;95430.78;;;10.21;100.00
13314;BME280;6725;48.112;11.604;2023-04-27T06:36:12;95429.94;;;10.31;100.00
13314;BME280;6725;48.112;11.604;2023-04-27T06:38:37;95447.72;;;10.53;100.00
13314;BME280;6725;48.112;11.604;2023-04-27T06:41:03;95438.56;;;10.77;100.00
13314;BME280;6725;48.112;11.604;2023-04-27T06:43:29;95438.91;;;10.83;100.00
13314;BME280;6725;48.112;11.604;2023-04-27T06:45:54;95437.16;;;11.03;100.00
13314;BME280;6725;48.112;11.604;2023-04-27T06:48:20;95441.03;;;11.05;100.00
13314;BME280;6725;48.112;11.604;2023-04-27T06:50:45;95450.31;;;11.15;100.00
13314;BME280;6725;48.112;11.604;2023-04-27T06:53:11;95454.13;;;11.24;100.00
13314;BME280;6725;48.112;11.604;2023-04-27T06:55:37;95453.28;;;11.31;100.00
13314;BME280;6725;48.112;11.604;2023-04-27T06:58:02;95455.81;;;11.48;100.00
13314;BME280;6725;48.112;11.604;2023-04-27T07:00:28;95454.59;;;11.53;100.00
13314;BME280;6725;48.112;11.604;2023-04-27T07:02:53;95454.94;;;11.58;100.00
13314;BME280;6725;48.112;11.604;2023-04-27T07:05:19;95453.88;;;11.49;100.00
13314;BME280;6725;48.112;11.604;2023-04-27T07:07:45;95459.13;;;11.70;100.00
13314;BME280;6725;48.112;11.604;2023-04-27T07:10:10;95458.06;;;11.94;100.00
13314;BME280;6725;48.112;11.604;2023-04-27T07:12:36;95461.09;;;11.99;100.00
13314;BME280;6725;48.112;11.604;2023-04-27T07:15:03;95466.63;;;11.96;100.00
13314;BME280;6725;48.112;11.604;2023-04-27T07:17:30;95460.91;;;11.87;100.00
13314;BME280;6725;48.112;11.604;2023-04-27T07:19:56;95459.16;;;12.00;100.00
13314;BME280;6725;48.112;11.604;2023-04-27T07:22:21;95472.44;;;12.01;100.00
13314;BME280;6725;48.112;11.604;2023-04-27T07:24:46;95465.81;;;11.99;100.00
13314;BME280;6725;48.112;11.604;2023-04-27T07:27:12;95472.19;;;11.89;100.00
13314;BME280;6725;48.112;11.604;2023-04-27T07:29:39;95467.47;;;11.93;100.00
13314;BME280;6725;48.112;11.604;2023-04-27T07:32:06;95463.28;;;12.41;100.00
13314;BME280;6725;48.112;11.604;2023-04-27T07:34:31;95466.50;;;12.63;100.00
13314;BME280;6725;48.112;11.604;2023-04-27T07:36:57;95479.03;;;12.64;100.00
13314;BME280;6725;48.112;11.604;2023-04-27T07:39:22;95471.56;;;12.64;100.00
13314;BME280;6725;48.112;11.604;2023-04-27T07:41:48;95466.69;;;12.75;100.00
13314;BME280;6725;48.112;11.604;2023-04-27T07:44:15;95466.09;;;13.37;100.00
13314;BME280;6725;48.112;11.604;2023-04-27T07:46:41;95468.25;;;13.69;100.00
13314;BME280;6725;48.112;11.604;2023-04-27T07:49:06;95465.44;;;14.11;100.00
13314;BME280;6725;48.112;11.604;2023-04-27T07:51:31;95468.13;;;14.34;100.00
13314;BME280;6725;48.112;11.604;2023-04-27T07:53:58;95476.28;;;14.18;100.00
13314;BME280;6725;48.112;11.604;2023-04-27T07:56:24;95471.38;;;14.29;100.00
13314;BME280;6725;48.112;11.604;2023-04-27T07:58:49;95473.97;;;14.17;100.00
13314;BME280;6725;48.112;11.604;2023-04-27T08:01:14;95476.56;;;14.43;100.00
13314;BME280;6725;48.112;11.604;2023-04-27T08:03:40;95477.56;;;14.33;100.00
13314;BME280;6725;48.112;11.604;2023-04-27T08:06:06;95477.28;;;14.08;100.00
13314;BME280;6725;48.112;11.604;2023-04-27T08:08:31;95479.59;;;13.90;100.00
13314;BME280;6725;48.112;11.604;2023-04-27T08:10:56;95479.16;;;13.72;100.00
13314;BME280;6725;48.112;11.604;2023-04-27T08:13:22;95484.94;;;13.97;100.00
13314;BME280;6725;48.112;11.604;2023-04-27T08:15:47;95483.75;;;14.37;100.00
13314;BME280;6725;48.112;11.604;2023-04-27T08:18:12;95482.63;;;14.86;100.00
13314;BME280;6725;48.112;11.604;2023-04-27T08:20:38;95483.34;;;15.22;100.00
13314;BME280;6725;48.112;11.604;2023-04-27T08:23:03;95489.53;;;15.10;100.00
13314;BME280;6725;48.112;11.604;2023-04-27T08:25:28;95490.03;;;15.69;100.00
13314;BME280;6725;48.112;11.604;2023-04-27T08:27:54;95478.09;;;15.88;100.00
13314;BME280;6725;48.112;11.604;2023-04-27T08:30:19;95489.28;;;15.97;100.00
13314;BME280;6725;48.112;11.604;2023-04-27T08:32:45;95482.09;;;16.28;100.00
13314;BME280;6725;48.112;11.604;2023-04-27T08:35:11;95487.09;;;16.46;100.00
13314;BME280;6725;48.112;11.604;2023-04-27T08:37:38;95484.25;;;16.08;100.00
13314;BME280;6725;48.112;11.604;2023-04-27T08:40:05;95488.22;;;16.49;100.00
13314;BME280;6725;48.112;11.604;2023-04-27T08:42:31;95487.72;;;17.04;100.00
13314;BME280;6725;48.112;11.604;2023-04-27T08:44:57;95483.59;;;17.46;100.00
13314;BME280;6725;48.112;11.604;2023-04-27T08:47:22;95489.13;;;17.08;100.00
13314;BME280;6725;48.112;11.604;2023-04-27T08:49:47;95487.59;;;17.20;100.00
13314;BME280;6725;48.112;11.604;2023-04-27T08:52:14;95485.69;;;17.42;100.00
13314;BME280;6725;48.112;11.604;2023-04-27T08:54:39;95486.66;;;17.60;100.00
13314;BME280;6725;48.112;11.604;2023-04-27T08:57:12;95484.13;;;17.66;100.00
13314;BME280;6725;48.112;11.604;2023-04-27T08:59:41;95483.56;;;18.57;100.00
13314;BME280;6725;48.112;11.604;2023-04-27T09:02:19;95486.78;;;18.77;100.00
13314;BME280;6725;48.112;11.604;2023-04-27T09:04:44;95473.81;;;19.35;99.33
13314;BME280;6725;48.112;11.604;2023-04-27T09:07:14;95474.22;;;20.00;93.18
13314;BME280;6725;48.112;11.604;2023-04-27T09:09:40;95467.38;;;20.64;87.50
13314;BME280;6725;48.112;11.604;2023-04-27T09:12:25;95467.38;;;20.64;87.50
13314;BME280;6725;48.112;11.604;2023-04-27T09:15:03;95472.78;;;20.59;75.52
13314;BME280;6725;48.112;11.604;2023-04-27T09:17:30;95471.78;;;20.11;77.28
13314;BME280;6725;48.112;11.604;2023-04-27T09:20:03;95468.06;;;20.14;80.79
13314;BME280;6725;48.112;11.604;2023-04-27T09:22:41;95468.34;;;21.12;72.91
13314;BME280;6725;48.112;11.604;2023-04-27T09:25:07;95466.75;;;22.14;73.26
13314;BME280;6725;48.112;11.604;2023-04-27T09:27:32;95466.75;;;22.14;73.26
13314;BME280;6725;48.112;11.604;2023-04-27T09:29:57;95472.72;;;22.89;64.01
13314;BME280;6725;48.112;11.604;2023-04-27T09:32:23;95482.22;;;22.15;59.05
13314;BME280;6725;48.112;11.604;2023-04-27T09:34:48;95471.09;;;22.15;58.54
13314;BME280;6725;48.112;11.604;2023-04-27T09:37:14;95469.81;;;22.39;55.40
13314;BME280;6725;48.112;11.604;2023-04-27T09:39:41;95462.66;;;22.77;55.00
13314;BME280;6725;48.112;11.604;2023-04-27T09:42:06;95461.47;;;22.01;54.83
13314;BME280;6725;48.112;11.604;2023-04-27T09:44:32;95464.84;;;20.84;56.20
13314;BME280;6725;48.112;11.604;2023-04-27T09:46:59;95464.81;;;22.43;53.93
13314;BME280;6725;48.112;11.604;2023-04-27T09:49:26;95454.28;;;22.77;51.08
13314;BME280;6725;48.112;11.604;2023-04-27T09:51:54;95448.78;;;21.86;53.93
13314;BME280;6725;48.112;11.604;2023-04-27T09:54:21;95448.56;;;21.89;55.39
13314;BME280;6725;48.112;11.604;2023-04-27T10:02:05;95457.03;;;22.33;52.59
13314;BME280;6725;48.112;11.604;2023-04-27T10:07:37;95436.38;;;21.63;58.74
13314;BME280;6725;48.112;11.604;2023-04-27T10:10:03;95446.09;;;21.91;60.95
13314;BME280;6725;48.112;11.604;2023-04-27T10:12:34;95440.31;;;21.80;61.34
13314;BME280;6725;48.112;11.604;2023-04-27T10:15:15;95434.59;;;21.28;58.56
13314;BME280;6725;48.112;11.604;2023-04-27T10:17:49;95430.28;;;20.85;58.45
13314;BME280;6725;48.112;11.604;2023-04-27T10:20:15;95427.25;;;20.74;65.12
13314;BME280;6725;48.112;11.604;2023-04-27T10:22:45;95429.81;;;20.36;64.94
13314;BME280;6725;48.112;11.604;2023-04-27T10:25:45;95428.56;;;19.38;68.33
13314;BME280;6725;48.112;11.604;2023-04-27T10:28:15;95428.59;;;19.92;69.71
13314;BME280;6725;48.112;11.604;2023-04-27T10:30:44;95423.38;;;19.76;69.17
13314;BME280;6725;48.112;11.604;2023-04-27T10:33:21;95432.88;;;19.48;68.26
13314;BME280;6725;48.112;11.604;2023-04-27T10:35:55;95435.66;;;19.39;68.39
13314;BME280;6725;48.112;11.604;2023-04-27T10:38:27;95431.00;;;18.87;70.72
13314;BME280;6725;48.112;11.604;2023-04-27T10:40:57;95433.03;;;18.96;70.01
13314;BME280;6725;48.112;11.604;2023-04-27T10:43:27;95428.16;;;19.09;71.96
13314;BME280;6725;48.112;11.604;2023-04-27T10:45:53;95422.91;;;19.02;74.75
13314;BME280;6725;48.112;11.604;2023-04-27T10:48:19;95424.50;;;19.21;76.53
13314;BME280;6725;48.112;11.604;2023-04-27T10:50:44;95424.88;;;19.32;72.12
13314;BME280;6725;48.112;11.604;2023-04-27T10:53:11;95415.81;;;20.22;72.88
13314;BME280;6725;48.112;11.604;2023-04-27T10:55:37;95419.06;;;20.20;68.20
13314;BME280;6725;48.112;11.604;2023-04-27T10:58:02;95419.94;;;20.35;69.45
13314;BME280;6725;48.112;11.604;2023-04-27T11:02:54;95418.91;;;20.06;64.27
13314;BME280;6725;48.112;11.604;2023-04-27T11:05:25;95426.44;;;19.60;69.47
13314;BME280;6725;48.112;11.604;2023-04-27T11:08:23;95426.50;;;19.20;72.48
13314;BME280;6725;48.112;11.604;2023-04-27T11:10:50;95423.50;;;19.36;71.02
13314;BME280;6725;48.112;11.604;2023-04-27T11:13:21;95423.50;;;18.97;71.23
13314;BME280;6725;48.112;11.604;2023-04-27T11:15:49;95411.47;;;19.30;70.43
13314;BME280;6725;48.112;11.604;2023-04-27T11:18:16;95417.09;;;19.09;73.61
13314;BME280;6725;48.112;11.604;2023-04-27T11:20:43;95424.00;;;19.13;73.51
13314;BME280;6725;48.112;11.604;2023-04-27T11:23:09;95423.25;;;19.13;74.56
13314;BME280;6725;48.112;11.604;2023-04-27T11:25:36;95429.41;;;19.17;74.31
13314;BME280;6725;48.112;11.604;2023-04-27T11:28:01;95426.56;;;19.29;72.11
13314;BME280;6725;48.112;11.604;2023-04-27T11:30:28;95423.22;;;19.04;74.60
13314;BME280;6725;48.112;11.604;2023-04-27T11:32:54;95431.34;;;19.47;74.91
13314;BME280;6725;48.112;11.604;2023-04-27T11:35:31;95426.75;;;19.04;70.31
13314;BME280;6725;48.112;11.604;2023-04-27T11:37:57;95427.41;;;18.17;74.05
13314;BME280;6725;48.112;11.604;2023-04-27T11:40:23;95436.38;;;18.30;77.03
13314;BME280;6725;48.112;11.604;2023-04-27T11:42:55;95432.94;;;18.38;74.99
13314;BME280;6725;48.112;11.604;2023-04-27T11:45:24;95435.63;;;18.51;75.95
13314;BME280;6725;48.112;11.604;2023-04-27T11:47:50;95427.19;;;18.94;76.26
13314;BME280;6725;48.112;11.604;2023-04-27T11:50:15;95437.63;;;19.38;73.80
13314;BME280;6725;48.112;11.604;2023-04-27T11:52:41;95436.88;;;19.38;67.67
13314;BME280;6725;48.112;11.604;2023-04-27T11:55:06;95432.09;;;18.90;69.43
13314;BME280;6725;48.112;11.604;2023-04-27T11:57:35;95437.22;;;19.00;72.80
13314;BME280;6725;48.112;11.604;2023-04-27T12:00:03;95435.16;;;19.31;76.20
13314;BME280;6725;48.112;11.604;2023-04-27T12:02:35;95437.97;;;19.49;68.51
13314;BME280;6725;48.112;11.604;2023-04-27T12:05:01;95441.22;;;19.57;69.72
13314;BME280;6725;48.112;11.604;2023-04-27T12:07:27;95433.22;;;19.77;71.12
13314;BME280;6725;48.112;11.604;2023-04-27T12:09:52;95436.31;;;19.61;69.16
13314;BME280;6725;48.112;11.604;2023-04-27T12:12:17;95439.94;;;19.40;70.61
13314;BME280;6725;48.112;11.604;2023-04-27T12:14:45;95443.66;;;19.55;69.10
13314;BME280;6725;48.112;11.604;2023-04-27T12:17:10;95434.41;;;19.31;68.41
13314;BME280;6725;48.112;11.604;2023-04-27T12:19:36;95434.63;;;19.15;71.91
13314;BME280;6725;48.112;11.604;2023-04-27T12:22:01;95432.81;;;19.21;73.95
13314;BME280;6725;48.112;11.604;2023-04-27T12:24:27;95434.34;;;19.13;73.17
13314;BME280;6725;48.112;11.604;2023-04-27T12:26:52;95431.72;;;19.18;74.15
13314;BME280;6725;48.112;11.604;2023-04-27T12:29:17;95432.25;;;19.44;75.94
13314;BME280;6725;48.112;11.604;2023-04-27T12:31:43;95429.84;;;19.91;72.86
13314;BME280;6725;48.112;11.604;2023-04-27T12:34:08;95428.31;;;19.90;72.75
13314;BME280;6725;48.112;11.604;2023-04-27T12:36:33;95419.06;;;19.75;69.92
13314;BME280;6725;48.112;11.604;2023-04-27T12:39:11;95438.31;;;19.70;69.13
13314;BME280;6725;48.112;11.604;2023-04-27T12:41:37;95431.22;;;19.87;67.82
13314;BME280;6725;48.112;11.604;2023-04-27T12:44:03;95435.25;;;19.10;67.38
13314;BME280;6725;48.112;11.604;2023-04-27T12:46:28;95426.31;;;19.15;70.19
13314;BME280;6725;48.112;11.604;2023-04-27T12:48:54;95422.25;;;19.37;70.60
13314;BME280;6725;48.112;11.604;2023-04-27T12:51:21;95429.78;;;19.28;71.04
13314;BME280;6725;48.112;11.604;2023-04-27T12:53:46;95439.19;;;19.39;70.31
13314;BME280;6725;48.112;11.604;2023-04-27T12:56:12;95421.28;;;19.22;67.92
13314;BME280;6725;48.112;11.604;2023-04-27T12:58:37;95416.00;;;19.06;70.50
13314;BME280;6725;48.112;11.604;2023-04-27T13:01:03;95419.56;;;19.16;69.90
13314;BME280;6725;48.112;11.604;2023-04-27T13:03:29;95418.16;;;18.63;68.49
13314;BME280;6725;48.112;11.604;2023-04-27T13:05:55;95411.88;;;18.41;73.14